Terminal Aerodrome Forecast
Issued by NWS Louisville, KY

Home | Current Version | Previous Version | Text Only | Print | Product List | Glossary On
Versions: 1 2 3 4 5 6 7 8 9 10 11 12 13 14 15 16 17 18 19 20 21 22 23 24 25
199
FTUS43 KLMK 280211 AAA
TAFSDF
TAF AMD
KSDF 280211Z 2802/2906 VRB05KT P6SM VCSH SCT035 BKN120
     FM280300 VRB05KT 3SM -TSRA BKN040CB
     FM280400 VRB05KT 6SM BR VCSH BKN035
     FM281300 23005KT P6SM VCTS BKN035CB
     FM290000 VRB03KT P6SM SCT035 BKN050=

USA.gov is the U.S. government's official web portal to all federal, state and local government web resources and services.